createdAt,value
2018-01-11T10:41:24.789Z,43.57
2018-01-11T10:43:53.284Z,41.50
2018-01-11T10:46:21.780Z,44.43
2018-01-11T10:48:52.429Z,46.87
2018-01-11T10:51:20.944Z,47.13
2018-01-11T10:53:49.285Z,46.20
2018-01-11T10:56:19.795Z,50.97
2018-01-11T10:58:48.789Z,44.87
2018-01-11T11:01:22.636Z,48.13
2018-01-11T11:03:51.089Z,55.80
2018-01-11T11:06:19.416Z,50.47
2018-01-11T11:08:47.759Z,45.37
2018-01-11T11:11:16.332Z,51.93
2018-01-11T11:13:44.960Z,57.63
2018-01-11T11:16:13.308Z,56.27
2018-01-11T11:18:41.732Z,56.93
2018-01-11T11:26:16.235Z,65.80
2018-01-11T11:33:49.671Z,51.57
2018-01-11T11:36:22.123Z,47.33
2018-01-11T11:38:53.076Z,57.30
2018-01-11T11:41:21.419Z,53.60
2018-01-11T11:43:49.739Z,64.13
2018-01-11T11:46:18.077Z,48.33
2018-01-11T11:48:46.471Z,56.47
2018-01-11T11:51:15.313Z,68.17
2018-01-11T11:53:46.880Z,65.37
2018-01-11T11:56:15.281Z,54.37
2018-01-11T11:58:44.436Z,62.93
2018-01-11T12:01:12.830Z,53.10
2018-01-11T12:03:41.196Z,68.00
2018-01-11T12:11:14.702Z,62.20
2018-01-11T12:13:43.036Z,58.77
2018-01-11T12:16:11.505Z,66.90
2018-01-11T12:18:40.080Z,77.20
2018-01-11T12:21:09.594Z,59.97
2018-01-11T12:28:45.375Z,50.90
2018-01-11T12:31:14.627Z,60.63
2018-01-11T12:39:00.957Z,59.73
2018-01-11T12:41:29.354Z,60.33
2018-01-11T12:43:58.670Z,50.53
2018-01-11T12:46:30.557Z,59.50
2018-01-11T12:48:59.320Z,55.23
2018-01-11T12:51:27.747Z,43.80
2018-01-11T12:53:56.104Z,55.10
2018-01-11T12:56:24.483Z,43.53
2018-01-11T12:58:53.436Z,47.47
2018-01-11T13:01:21.912Z,40.27
2018-01-11T13:03:52.170Z,42.53
2018-01-11T13:06:20.485Z,56.23
2018-01-11T13:08:48.990Z,45.73
2018-01-11T13:11:17.311Z,66.10
2018-01-11T13:13:45.729Z,50.73
2018-01-11T13:16:14.068Z,47.23
2018-01-11T13:18:43.851Z,63.60
2018-01-11T13:21:12.213Z,57.00
2018-01-11T13:23:43.185Z,40.50
2018-01-11T13:28:45.616Z,43.87
2018-01-11T13:31:14.416Z,53.60
2018-01-11T13:33:45.239Z,51.03
2018-01-11T13:36:14.119Z,49.30
2018-01-11T13:38:45.523Z,41.33
2018-01-11T13:41:15.544Z,43.30
2018-01-11T13:43:44.217Z,29.07
2018-01-11T13:46:13.376Z,47.90
2018-01-11T13:48:41.937Z,33.87
2018-01-11T13:51:10.567Z,53.97
2018-01-11T13:53:44.785Z,42.07
2018-01-11T13:56:14.168Z,25.33
2018-01-11T14:01:17.151Z,44.37
2018-01-11T14:03:45.531Z,41.67
2018-01-11T14:06:13.971Z,32.70
2018-01-11T14:08:42.352Z,42.97
2018-01-11T14:11:11.188Z,23.43
2018-01-11T14:13:39.560Z,37.90
2018-01-11T14:16:08.420Z,30.53
2018-01-11T14:18:37.499Z,27.00
2018-01-11T14:21:06.042Z,23.33
2018-01-11T14:23:35.938Z,27.90
2018-01-11T14:26:04.690Z,27.80
2018-01-11T14:28:33.003Z,23.30
2018-01-11T14:31:01.438Z,29.47
2018-01-11T14:33:29.763Z,21.67
2018-01-11T14:35:58.701Z,32.50
2018-01-11T14:38:27.600Z,23.20
2018-01-11T14:40:55.947Z,39.60
2018-01-11T14:43:28.091Z,21.83
2018-01-11T14:45:57.629Z,29.27
2018-01-11T14:48:25.997Z,21.80
2018-01-11T14:50:54.373Z,25.70
2018-01-11T14:53:22.721Z,24.00
2018-01-11T14:55:51.027Z,25.10
2018-01-11T14:58:20.442Z,19.37
2018-01-11T15:00:54.162Z,28.70
2018-01-11T15:03:22.500Z,22.43
2018-01-11T15:05:51.829Z,26.60
2018-01-11T15:08:20.159Z,26.10
2018-01-11T15:10:48.546Z,21.77
2018-01-11T15:13:18.022Z,23.97
2018-01-11T15:15:46.406Z,24.37
2018-01-11T15:18:15.750Z,28.40
2018-01-11T15:20:44.161Z,27.07
2018-01-11T15:23:12.531Z,24.93
2018-01-11T15:25:41.571Z,28.40
2018-01-11T15:28:09.909Z,24.07
2018-01-11T15:30:38.352Z,25.87
2018-01-11T15:33:08.241Z,40.10
2018-01-11T15:35:36.548Z,24.63
2018-01-11T15:38:04.928Z,20.80
2018-01-11T15:40:34.552Z,32.53
2018-01-11T15:43:03.903Z,23.60
2018-01-11T15:45:32.920Z,24.00
2018-01-11T15:48:02.940Z,27.30
2018-01-11T15:50:31.405Z,26.43
2018-01-11T15:52:59.764Z,25.53
2018-01-11T15:55:28.255Z,23.53
2018-01-11T15:57:57.152Z,30.20
2018-01-11T16:02:58.023Z,26.60
2018-01-11T16:07:58.948Z,28.33
2018-01-11T16:10:27.309Z,25.23
2018-01-11T16:12:55.634Z,32.00
2018-01-11T16:15:24.158Z,28.40
2018-01-11T16:23:00.987Z,37.73
2018-01-11T16:25:29.378Z,39.70
2018-01-11T16:27:57.873Z,37.30
2018-01-11T16:30:26.313Z,59.20
2018-01-11T16:32:54.639Z,56.73
2018-01-11T16:35:23.021Z,62.67
2018-01-11T16:40:25.900Z,63.30
2018-01-11T16:42:54.279Z,65.33
2018-01-11T16:47:56.109Z,55.87
2018-01-11T16:50:24.448Z,63.53
2018-01-11T16:52:55.771Z,66.30
2018-01-11T16:55:24.255Z,56.60
2018-01-11T16:57:52.651Z,62.30
2018-01-11T17:00:21.020Z,63.27
2018-01-11T17:05:22.167Z,60.80
2018-01-11T17:07:50.596Z,74.77
2018-01-11T17:12:55.852Z,61.63
2018-01-11T17:15:24.283Z,64.67
2018-01-11T17:17:52.686Z,65.70
2018-01-11T17:20:21.040Z,55.50
2018-01-11T17:22:49.409Z,57.70
2018-01-11T17:25:17.797Z,61.03
2018-01-11T17:27:46.165Z,56.43
2018-01-11T17:32:51.907Z,73.10
2018-01-11T17:37:54.140Z,74.30
2018-01-11T17:40:28.492Z,73.50
2018-01-11T17:42:56.852Z,66.87
2018-01-11T17:45:25.298Z,67.50
2018-01-11T17:47:53.654Z,62.37
2018-01-11T17:52:54.422Z,60.23
2018-01-11T17:55:23.027Z,55.17
2018-01-11T17:57:51.414Z,58.33
2018-01-11T18:00:20.001Z,63.87
2018-01-11T18:02:48.706Z,82.70
2018-01-11T18:05:17.334Z,88.03
2018-01-11T18:10:18.297Z,94.57
2018-01-11T18:12:46.669Z,82.33
2018-01-11T18:17:47.566Z,76.57
2018-01-11T18:22:53.043Z,88.10
2018-01-11T18:25:21.389Z,81.03
2018-01-11T18:27:49.829Z,80.30
2018-01-11T18:30:18.153Z,102.37
2018-01-11T18:32:50.879Z,95.17
2018-01-11T18:37:51.807Z,84.87
2018-01-11T18:40:20.949Z,84.70
2018-01-11T18:42:49.303Z,78.77
2018-01-11T18:47:50.194Z,93.73
2018-01-11T18:50:18.597Z,95.47
2018-01-11T18:52:47.319Z,85.97
2018-01-11T18:55:15.743Z,86.37
2018-01-11T18:57:44.147Z,107.90
2018-01-11T19:02:49.517Z,101.77
2018-01-11T19:05:18.090Z,94.87
2018-01-11T19:07:50.014Z,110.77
2018-01-11T19:10:18.635Z,118.27
2018-01-11T19:12:47.274Z,117.50
2018-01-11T19:15:15.871Z,110.97
2018-01-11T19:17:45.519Z,119.97
2018-01-11T19:20:14.149Z,98.03
2018-01-11T19:22:42.538Z,118.70
2018-01-11T19:25:11.025Z,121.77
2018-01-11T19:27:40.136Z,98.83
2018-01-11T19:30:08.544Z,93.50
2018-01-11T19:32:36.905Z,102.80
2018-01-11T19:35:05.280Z,96.67
2018-01-11T19:37:33.674Z,106.33
2018-01-11T19:42:34.841Z,117.63
2018-01-11T19:45:09.793Z,95.53
2018-01-11T19:47:38.154Z,100.27
2018-01-11T19:50:06.598Z,107.07
2018-01-11T19:52:34.929Z,97.23
2018-01-11T19:55:03.395Z,100.43
2018-01-11T19:57:31.748Z,109.83
2018-01-11T20:00:01.197Z,96.77
2018-01-11T20:02:30.271Z,108.37
2018-01-11T20:07:31.401Z,118.37
2018-01-11T20:09:59.765Z,109.90
2018-01-11T20:12:28.348Z,111.50
2018-01-11T20:14:56.770Z,103.00
2018-01-11T20:17:25.118Z,110.53
2018-01-11T20:19:53.487Z,111.50
2018-01-11T20:22:22.109Z,115.23
2018-01-11T20:24:50.539Z,121.10
2018-01-11T20:27:18.862Z,120.53
2018-01-11T20:29:47.209Z,144.27
2018-01-11T20:32:15.587Z,99.70
2018-01-11T20:34:43.952Z,103.40
2018-01-11T20:37:12.441Z,113.20
2018-01-11T20:39:40.788Z,117.07
2018-01-11T20:42:09.766Z,89.13
2018-01-11T20:44:38.145Z,131.17
2018-01-11T20:47:06.542Z,122.27
2018-01-11T20:49:35.059Z,110.47
2018-01-11T20:52:03.560Z,104.93
2018-01-11T20:54:31.939Z,102.00
2018-01-11T20:57:00.367Z,109.40
2018-01-11T21:02:01.390Z,99.53
2018-01-11T21:04:29.747Z,117.67
2018-01-11T21:06:58.140Z,84.97
2018-01-11T21:09:26.458Z,93.33
2018-01-11T21:11:54.908Z,96.80
2018-01-11T21:14:23.375Z,113.90
2018-01-11T21:16:51.712Z,113.70
2018-01-11T21:19:20.081Z,82.23
2018-01-11T21:21:48.456Z,97.03
2018-01-11T21:24:16.914Z,81.20
2018-01-11T21:26:45.488Z,86.93
2018-01-11T21:29:14.006Z,107.07
2018-01-11T21:31:42.423Z,86.30
2018-01-11T21:34:10.852Z,92.83
2018-01-11T21:36:39.472Z,76.10
2018-01-11T21:39:07.944Z,102.30
2018-01-11T21:41:36.675Z,109.37
2018-01-11T21:44:05.037Z,70.67
2018-01-11T21:46:33.435Z,81.67
2018-01-11T21:49:01.867Z,88.57
2018-01-11T21:51:30.228Z,79.13
2018-01-11T21:53:58.605Z,87.10
2018-01-11T21:56:26.995Z,94.53
2018-01-11T21:58:55.361Z,111.83
2018-01-11T22:01:23.698Z,72.97
2018-01-11T22:03:52.033Z,95.83
2018-01-11T22:06:20.377Z,90.17
2018-01-11T22:08:48.759Z,89.70
2018-01-11T22:11:17.125Z,100.57
2018-01-11T22:13:45.507Z,98.53
2018-01-11T22:16:13.825Z,93.93
2018-01-11T22:18:42.266Z,79.77
2018-01-11T22:21:10.673Z,68.83
2018-01-11T22:23:39.968Z,54.80
2018-01-11T22:26:08.340Z,50.67
2018-01-11T22:28:36.706Z,56.00
2018-01-11T22:31:06.188Z,73.57
2018-01-11T22:33:34.507Z,64.07
2018-01-11T22:36:02.876Z,80.67
2018-01-11T22:38:31.404Z,76.30
2018-01-11T22:40:59.746Z,61.93
2018-01-11T22:43:28.092Z,78.47
2018-01-11T22:45:56.436Z,51.07
2018-01-11T22:48:24.815Z,51.50
2018-01-11T22:50:53.141Z,60.90
2018-01-11T22:53:21.467Z,62.63
2018-01-11T22:55:49.795Z,55.13
2018-01-11T22:58:18.165Z,73.47
2018-01-11T23:00:46.486Z,75.70
2018-01-11T23:03:14.842Z,67.13
2018-01-11T23:05:43.180Z,88.50
2018-01-11T23:08:11.637Z,61.87
2018-01-11T23:10:39.996Z,57.90
2018-01-11T23:13:08.347Z,53.93
2018-01-11T23:15:36.666Z,67.43
2018-01-11T23:18:05.028Z,71.20
2018-01-11T23:20:33.368Z,69.23
2018-01-11T23:23:01.688Z,61.90
2018-01-11T23:25:30.048Z,80.63
2018-01-11T23:27:58.397Z,58.40
2018-01-11T23:30:26.926Z,54.50
2018-01-11T23:32:55.287Z,59.07
2018-01-11T23:35:23.668Z,54.90
2018-01-11T23:37:51.996Z,56.20
2018-01-11T23:40:20.349Z,50.67
2018-01-11T23:42:48.700Z,52.47
2018-01-11T23:45:17.043Z,55.60
2018-01-11T23:47:45.420Z,61.87
2018-01-11T23:50:13.751Z,58.43
2018-01-11T23:52:42.092Z,47.93
2018-01-11T23:55:10.432Z,56.43
2018-01-11T23:57:38.783Z,52.47
